Leesburg, VA (20175)

1:32 PM EST on February 13, 2016 (GMT -0500)
Emerald Park Estates | | Change Station
CLOSE
Current Station
Personal Weather Station
Location: Leesburg, VA
Elevation: 424 ft
Nearby Weather Stations
Active Advisory: Wind Chill Advisory

Elev 424 ft 39.08 °N, 77.59 °W | Updated 1 second ago

Overcast
Overcast
17.6 °F
Feels Like 8 °F
N
7.0
Wind Variable Wind from WNW
Gusts 16.0 mph

Today
High -- | Low -- °F
--% Chance of Precip.
Yesterday
High -- | Low -- °F
Precip. -- in
Pressure 30.29 in
Visibility 10.0 miles
Clouds Mostly Cloudy 6000 ft
Overcast 7000 ft
Windchill 8 °F
Dew Point -2 °F
Humidity 42%
Rainfall 0.00 in
Snow Depth Not available.
7:04 AM 5:44 PM
Waxing Crescent, 33% visible
METAR KJYO 131815Z AUTO 31020G30KT 10SM BKN060 OVC070 M05/M17 A3029 RMK AO2
Pressure 30.29 in
Visibility 10.0 miles
Clouds Mostly Cloudy 6000 ft
Overcast 7000 ft
Windchill 8 °F
Dew Point -2 °F
Humidity 42%
Rainfall 0.00 in
Snow Depth Not available.
7:04 AM 5:44 PM
Waxing Crescent, 33% visible
METAR KJYO 131815Z AUTO 31020G30KT 10SM BKN060 OVC070 M05/M17 A3029 RMK AO2

10-Day Weather Forecast

Almanac

Astronomy

Feb. 13, 2016 Rise Set
Actual Time
Civil Twilight
Nautical Twilight
Astronomical Twilight
Moon
Length of Visible Light
Length of Day
Tomorrow will be .
, % of the Moon is Illuminated

Today's Extremes

State Highs State Lows

Community

WunderPhotos

Upload Photos

1,892,633 photos uploaded!

WunderBlog® & News

Nearby

Air Quality

  Air Quality AQ Index Pollutant
Not available.

Snow Depth

Station Depth Elevation

Earthquake Activity

City Distance Mag. Time & Date
Minimum magnitude displayed is 2.5.

Coastal Water Temperatures

Place Temperature

Stations

Nearby Weather Stations

Station Location Temp. Windchill Dew Point Humidity Wind Precip. Elev Updated Type
                   

Watches & Warnings

Wind Chill Advisory
Issued: 11:55 AM EST Feb. 13, 2016 – National Weather Service

... Wind Chill Advisory now in effect from 6 PM this evening to
9 am EST Sunday...

* wind chills... 0 to 5 degrees below zero.

* Winds... northwest 20 to 30 mph with gusts up to 45 mph. Winds
decreasing to 10 to 15 mph tonight.

* Temperatures... falling into the single digits to low teens
tonight.

* Timing... late tonight through Sunday morning.

* Impacts... frost bite and hypothermia are possible if
precautions are not taken.

Precautionary/preparedness actions...

A Wind Chill Advisory means that very cold air and strong winds
will combine to generate low wind chills. This will result in
frost bite and lead to hypothermia if precautions are not taken.
If you must venture outdoors... make sure you wear a hat and
gloves.